createdAt,value
2022-12-01T00:01:29.182Z,5.05
2022-12-01T00:03:55.838Z,4.77
2022-12-01T00:06:24.529Z,4.81
2022-12-01T00:09:14.056Z,4.57
2022-12-01T00:11:43.181Z,4.71
2022-12-01T00:14:11.998Z,4.66
2022-12-01T00:16:40.535Z,4.48
2022-12-01T00:19:07.155Z,4.24
2022-12-01T00:21:33.654Z,4.54
2022-12-01T00:24:00.224Z,4.61
2022-12-01T00:26:27.605Z,4.43
2022-12-01T00:28:59.276Z,4.36
2022-12-01T00:31:28.501Z,4.35
2022-12-01T00:33:55.055Z,4.39
2022-12-01T00:36:26.701Z,4.18
2022-12-01T00:38:54.910Z,4.15
2022-12-01T00:41:24.996Z,4.09
2022-12-01T00:43:51.840Z,4.06
2022-12-01T00:46:21.043Z,4.14
2022-12-01T00:48:50.162Z,4.06
2022-12-01T00:51:21.236Z,4.01
2022-12-01T00:53:50.066Z,3.57
2022-12-01T00:56:18.977Z,3.72
2022-12-01T00:58:45.459Z,3.65
2022-12-01T01:01:12.133Z,3.50
2022-12-01T01:03:41.037Z,3.49
2022-12-01T01:06:10.700Z,3.18
2022-12-01T01:08:37.590Z,3.15
2022-12-01T01:11:05.285Z,3.21
2022-12-01T01:13:35.798Z,2.98
2022-12-01T01:16:08.123Z,3.17
2022-12-01T01:18:34.885Z,3.14
2022-12-01T01:21:06.082Z,3.02
2022-12-01T01:23:32.926Z,2.76
2022-12-01T01:26:18.639Z,2.61
2022-12-01T01:28:50.729Z,2.15
2022-12-01T01:31:24.223Z,2.28
2022-12-01T01:33:51.935Z,2.41
2022-12-01T01:36:19.723Z,2.38
2022-12-01T01:38:51.550Z,2.38
2022-12-01T01:41:23.647Z,2.48
2022-12-01T01:43:55.847Z,2.15
2022-12-01T01:46:30.160Z,2.42
2022-12-01T01:49:01.630Z,2.44
2022-12-01T01:51:40.520Z,2.20
2022-12-01T01:54:16.082Z,2.39
2022-12-01T01:56:47.619Z,2.50
2022-12-01T01:59:22.657Z,2.24
2022-12-01T02:01:57.125Z,2.18
2022-12-01T02:04:31.135Z,2.00
2022-12-01T02:06:57.798Z,2.33
2022-12-01T02:09:24.798Z,2.48
2022-12-01T02:12:03.395Z,2.43
2022-12-01T02:14:42.100Z,2.38
2022-12-01T02:17:30.570Z,2.59
2022-12-01T02:20:11.704Z,2.53
2022-12-01T02:22:44.064Z,2.33
2022-12-01T02:25:28.781Z,2.47
2022-12-01T02:28:12.863Z,2.48
2022-12-01T02:30:45.087Z,2.71
2022-12-01T02:33:16.309Z,2.58
2022-12-01T02:36:05.752Z,2.58
2022-12-01T02:38:39.825Z,2.08
2022-12-01T02:41:12.595Z,1.84
2022-12-01T02:43:59.244Z,2.05
2022-12-01T02:46:50.802Z,2.18
2022-12-01T02:49:22.517Z,2.17
2022-12-01T02:51:51.264Z,2.12
2022-12-01T02:54:19.758Z,2.05
2022-12-01T02:56:46.737Z,2.22
2022-12-01T02:59:15.252Z,2.37
2022-12-01T03:02:06.119Z,2.45
2022-12-01T03:04:37.794Z,2.53
2022-12-01T03:07:16.902Z,2.59
2022-12-01T03:09:55.972Z,2.34
2022-12-01T03:12:35.164Z,2.48
2022-12-01T03:15:02.106Z,2.43
2022-12-01T03:17:42.444Z,2.47
2022-12-01T03:20:21.926Z,2.65
2022-12-01T03:22:57.322Z,2.61
2022-12-01T03:25:28.180Z,2.48
2022-12-01T03:28:20.357Z,2.51
2022-12-01T03:30:46.338Z,2.38
2022-12-01T03:33:23.822Z,2.37
2022-12-01T03:36:03.378Z,2.38
2022-12-01T03:38:37.398Z,2.47
2022-12-01T03:41:12.334Z,2.44
2022-12-01T03:43:46.210Z,2.35
2022-12-01T03:46:24.712Z,2.36
2022-12-01T03:48:54.240Z,2.29
2022-12-01T03:51:59.934Z,1.92
2022-12-01T03:54:33.550Z,1.88
2022-12-01T03:57:11.706Z,2.12
2022-12-01T03:59:41.897Z,2.26
2022-12-01T04:02:11.394Z,2.39
2022-12-01T04:04:38.387Z,2.12
2022-12-01T04:07:05.306Z,2.08
2022-12-01T04:09:34.516Z,2.26
2022-12-01T04:12:19.801Z,2.07
2022-12-01T04:14:46.509Z,2.03
2022-12-01T04:17:13.224Z,2.08
2022-12-01T04:19:42.538Z,2.18
2022-12-01T04:22:09.190Z,2.07
2022-12-01T04:24:38.323Z,2.03
2022-12-01T04:27:07.376Z,2.22
2022-12-01T04:29:36.242Z,2.24
2022-12-01T04:32:05.566Z,2.24
2022-12-01T04:34:32.394Z,2.28
2022-12-01T04:36:59.160Z,2.25
2022-12-01T04:39:25.889Z,2.18
2022-12-01T04:41:54.996Z,2.08
2022-12-01T04:44:21.812Z,2.18
2022-12-01T04:46:53.582Z,2.23
2022-12-01T04:49:21.874Z,2.20
2022-12-01T04:51:53.455Z,2.02
2022-12-01T04:54:22.701Z,2.05
2022-12-01T04:56:49.442Z,2.17
2022-12-01T04:59:16.461Z,2.17
2022-12-01T05:01:43.287Z,2.18
2022-12-01T05:04:16.138Z,2.05
2022-12-01T05:06:43.526Z,2.06
2022-12-01T05:09:17.505Z,1.78
2022-12-01T05:11:44.631Z,2.10
2022-12-01T05:14:13.245Z,2.25
2022-12-01T05:16:42.280Z,2.26
2022-12-01T05:19:32.452Z,2.17
2022-12-01T05:22:02.050Z,2.28
2022-12-01T05:24:28.535Z,2.36
2022-12-01T05:26:55.058Z,2.29
2022-12-01T05:29:23.995Z,2.19
2022-12-01T05:31:52.937Z,2.15
2022-12-01T05:34:19.541Z,1.93
2022-12-01T05:36:48.767Z,1.58
2022-12-01T05:39:17.967Z,1.42
2022-12-01T05:41:44.556Z,1.73
2022-12-01T05:44:11.084Z,1.94
2022-12-01T05:46:37.633Z,1.81
2022-12-01T05:49:04.169Z,1.63
2022-12-01T05:51:30.686Z,1.61
2022-12-01T05:54:01.629Z,1.71
2022-12-01T05:56:28.171Z,1.70
2022-12-01T05:58:57.003Z,1.87
2022-12-01T06:01:23.668Z,1.88
2022-12-01T06:03:52.942Z,2.04
2022-12-01T06:06:19.626Z,1.96
2022-12-01T06:08:48.249Z,1.95
2022-12-01T06:11:17.174Z,1.99
2022-12-01T06:13:43.717Z,1.81
2022-12-01T06:16:12.536Z,1.80
2022-12-01T06:18:41.875Z,1.81
2022-12-01T06:21:08.509Z,1.74
2022-12-01T06:23:35.613Z,1.37
2022-12-01T06:26:05.367Z,1.78
2022-12-01T06:28:34.200Z,1.99
2022-12-01T06:31:03.570Z,1.99
2022-12-01T06:33:31.568Z,1.83
2022-12-01T06:36:03.178Z,1.85
2022-12-01T06:38:37.016Z,1.86
2022-12-01T06:41:07.245Z,1.59
2022-12-01T06:43:36.576Z,1.63
2022-12-01T06:46:05.090Z,1.79
2022-12-01T06:52:37.028Z,1.89
2022-12-01T06:55:09.195Z,1.79
2022-12-01T06:57:59.253Z,2.02
2022-12-01T07:00:26.547Z,1.78
2022-12-01T07:02:53.132Z,1.76
2022-12-01T07:05:19.680Z,1.65
2022-12-01T07:07:46.273Z,1.74
2022-12-01T07:10:15.307Z,1.78
2022-12-01T07:12:41.826Z,1.78
2022-12-01T07:15:18.728Z,1.67
2022-12-01T07:18:14.506Z,1.86
2022-12-01T07:20:42.133Z,1.86
2022-12-01T07:23:10.990Z,1.93
2022-12-01T07:25:37.554Z,1.99
2022-12-01T07:28:04.203Z,2.05
2022-12-01T07:30:33.277Z,2.17
2022-12-01T07:33:04.508Z,2.09
2022-12-01T07:38:30.788Z,2.25
2022-12-01T07:41:11.831Z,2.29
2022-12-01T07:43:41.206Z,2.34
2022-12-01T07:46:20.578Z,2.25
2022-12-01T07:49:26.047Z,2.26
2022-12-01T07:52:22.241Z,2.19
2022-12-01T07:54:58.716Z,2.41
2022-12-01T07:57:27.714Z,2.47
2022-12-01T07:59:56.494Z,2.62
2022-12-01T08:02:25.679Z,2.76
2022-12-01T08:04:54.706Z,2.82
2022-12-01T08:07:26.091Z,2.90
2022-12-01T08:09:56.124Z,2.88
2022-12-01T08:12:27.630Z,3.16
2022-12-01T08:14:57.140Z,3.28
2022-12-01T08:17:23.727Z,3.39
2022-12-01T08:19:50.725Z,3.37
2022-12-01T08:22:23.577Z,3.62
2022-12-01T08:25:02.489Z,3.79
2022-12-01T08:27:29.052Z,3.77
2022-12-01T08:29:55.557Z,3.89
2022-12-01T08:32:22.224Z,3.97
2022-12-01T08:34:53.294Z,4.04
2022-12-01T08:37:20.304Z,4.06
2022-12-01T08:39:51.894Z,4.18
2022-12-01T08:42:38.939Z,4.40
2022-12-01T08:45:08.991Z,4.42
2022-12-01T08:47:35.569Z,4.44
2022-12-01T08:50:04.814Z,4.56
2022-12-01T08:52:31.846Z,4.57
2022-12-01T08:55:04.372Z,4.57
2022-12-01T08:57:37.076Z,4.68
2022-12-01T09:00:15.948Z,4.71
2022-12-01T09:02:49.794Z,4.78
2022-12-01T09:05:16.387Z,4.87
2022-12-01T09:08:27.345Z,4.95
2022-12-01T09:10:53.884Z,4.97
2022-12-01T09:13:22.689Z,5.08
2022-12-01T09:16:12.911Z,5.27
2022-12-01T09:18:42.301Z,5.28
2022-12-01T09:21:24.058Z,5.38
2022-12-01T09:23:56.127Z,5.44
2022-12-01T09:26:27.101Z,5.48
2022-12-01T09:28:56.265Z,5.44
2022-12-01T09:31:25.999Z,5.45
2022-12-01T09:34:27.751Z,5.62
2022-12-01T09:37:40.999Z,5.49
2022-12-01T09:40:13.885Z,5.50
2022-12-01T09:43:16.646Z,5.35
2022-12-01T09:45:58.209Z,5.13
2022-12-01T09:51:41.590Z,5.21
2022-12-01T09:54:18.640Z,5.08
2022-12-01T09:56:55.434Z,5.35
2022-12-01T09:59:31.271Z,5.40
2022-12-01T10:02:13.553Z,5.33
2022-12-01T10:04:46.495Z,5.54
2022-12-01T10:07:20.307Z,5.55
2022-12-01T10:09:59.198Z,5.50
2022-12-01T10:12:31.294Z,5.38
2022-12-01T10:15:26.363Z,5.38
2022-12-01T10:18:16.892Z,5.47
2022-12-01T10:20:49.848Z,5.47
2022-12-01T10:23:39.329Z,5.32
2022-12-01T10:26:26.867Z,5.44
2022-12-01T10:29:09.266Z,5.47
2022-12-01T10:31:54.834Z,5.59
2022-12-01T10:34:36.465Z,5.82
2022-12-01T10:37:03.373Z,6.00
2022-12-01T10:39:49.411Z,6.14
2022-12-01T10:42:57.457Z,6.17
2022-12-01T10:45:31.619Z,6.13
2022-12-01T10:48:25.723Z,6.17
2022-12-01T10:50:57.504Z,6.15
2022-12-01T10:53:26.903Z,5.96
2022-12-01T10:56:18.372Z,6.11
2022-12-01T10:58:57.056Z,6.38
2022-12-01T11:01:26.759Z,6.39
2022-12-01T11:04:08.030Z,6.55
2022-12-01T11:06:37.600Z,6.49
2022-12-01T11:09:22.896Z,6.31
2022-12-01T11:12:06.579Z,6.16
2022-12-01T11:14:52.381Z,6.20
2022-12-01T11:17:41.046Z,6.29
2022-12-01T11:20:31.011Z,6.38
2022-12-01T11:23:25.667Z,6.38
2022-12-01T11:26:25.618Z,6.38
2022-12-01T11:29:25.484Z,6.22
2022-12-01T11:31:53.230Z,6.07
2022-12-01T11:34:29.641Z,6.29
2022-12-01T11:37:01.839Z,6.43
2022-12-01T11:39:53.688Z,6.30
2022-12-01T11:42:25.360Z,6.52
2022-12-01T11:45:06.169Z,6.68
2022-12-01T11:47:33.034Z,6.66
2022-12-01T11:50:24.971Z,6.65
2022-12-01T11:52:51.522Z,6.75
2022-12-01T11:55:24.461Z,6.79
2022-12-01T11:57:54.845Z,6.63
2022-12-01T12:00:28.978Z,6.49
2022-12-01T12:03:14.573Z,6.58
2022-12-01T12:06:38.518Z,6.39
2022-12-01T12:08:56.697Z,6.54
2022-12-01T12:11:40.987Z,6.61
2022-12-01T12:14:26.365Z,6.73
2022-12-01T12:17:26.412Z,6.49
2022-12-01T12:20:09.181Z,6.46
2022-12-01T12:23:00.905Z,6.49
2022-12-01T12:26:31.909Z,6.64
2022-12-01T12:29:22.380Z,6.55
2022-12-01T12:32:18.389Z,6.62
2022-12-01T12:34:59.832Z,6.73
2022-12-01T12:37:32.538Z,6.80
2022-12-01T12:40:17.976Z,6.84
2022-12-01T12:43:09.992Z,6.99
2022-12-01T12:46:08.627Z,6.97
2022-12-01T12:49:22.083Z,6.35
2022-12-01T12:52:10.421Z,6.24
2022-12-01T12:54:56.691Z,6.34
2022-12-01T12:57:39.713Z,6.46
2022-12-01T13:00:20.425Z,6.60
2022-12-01T13:03:06.162Z,6.61
2022-12-01T13:05:59.859Z,6.40
2022-12-01T13:09:14.398Z,6.29
2022-12-01T13:11:55.527Z,6.07
2022-12-01T13:14:34.403Z,5.98
2022-12-01T13:17:27.283Z,5.92
2022-12-01T13:19:58.819Z,6.12
2022-12-01T13:22:32.152Z,6.17
2022-12-01T13:25:03.500Z,6.17
2022-12-01T13:27:34.555Z,6.13
2022-12-01T13:30:01.806Z,5.93
2022-12-01T13:32:37.447Z,6.30
2022-12-01T13:35:26.863Z,6.56
2022-12-01T13:37:54.399Z,6.65
2022-12-01T13:40:27.770Z,6.54
2022-12-01T13:43:10.393Z,6.49
2022-12-01T13:45:40.316Z,6.39
2022-12-01T13:48:26.353Z,6.20
2022-12-01T13:50:54.976Z,6.35
2022-12-01T13:53:38.403Z,6.13
2022-12-01T13:56:17.326Z,6.04
2022-12-01T13:58:45.611Z,6.14
2022-12-01T14:01:23.843Z,6.10
2022-12-01T14:03:57.401Z,6.19
2022-12-01T14:06:36.182Z,6.35
2022-12-01T14:09:14.605Z,6.00
2022-12-01T14:11:42.365Z,5.98
2022-12-01T14:14:08.830Z,6.27
2022-12-01T14:16:49.627Z,6.20
2022-12-01T14:19:46.799Z,6.00
2022-12-01T14:22:48.250Z,6.27
2022-12-01T14:28:06.780Z,6.29
2022-12-01T14:30:46.579Z,6.43
2022-12-01T14:33:51.123Z,6.44
2022-12-01T14:36:24.828Z,6.47
2022-12-01T14:39:00.377Z,6.31
2022-12-01T14:41:50.956Z,6.27
2022-12-01T14:44:44.020Z,6.08
2022-12-01T14:47:13.668Z,6.19
2022-12-01T14:50:14.979Z,6.39
2022-12-01T14:52:45.064Z,6.44
2022-12-01T14:55:32.985Z,6.38
2022-12-01T14:58:28.166Z,6.52
2022-12-01T15:01:06.181Z,6.56
2022-12-01T15:03:50.563Z,6.60
2022-12-01T15:06:28.569Z,6.47
2022-12-01T15:12:02.387Z,6.37
2022-12-01T15:14:46.895Z,6.20
2022-12-01T15:17:35.849Z,6.28
2022-12-01T15:20:02.558Z,6.21
2022-12-01T15:22:31.658Z,6.21
2022-12-01T15:25:19.512Z,5.81
2022-12-01T15:28:06.449Z,5.65
2022-12-01T15:30:35.699Z,5.91
2022-12-01T15:33:02.178Z,5.92
2022-12-01T15:35:29.152Z,5.94
2022-12-01T15:37:56.648Z,5.82
2022-12-01T15:43:20.225Z,5.90
2022-12-01T15:46:14.605Z,5.86
2022-12-01T15:48:42.014Z,5.64
2022-12-01T15:51:24.424Z,5.44
2022-12-01T15:54:00.187Z,5.46
2022-12-01T15:56:29.764Z,5.68
2022-12-01T15:59:21.773Z,5.81
2022-12-01T16:02:07.526Z,5.75
2022-12-01T16:04:36.341Z,5.78
2022-12-01T16:07:09.301Z,5.61
2022-12-01T16:09:54.935Z,5.59
2022-12-01T16:12:27.408Z,5.80
2022-12-01T16:15:01.684Z,5.79
2022-12-01T16:17:45.043Z,5.59
2022-12-01T16:20:34.071Z,5.37
2022-12-01T16:23:09.342Z,5.35
2022-12-01T16:32:29.717Z,5.62
2022-12-01T16:34:58.701Z,5.68
2022-12-01T16:37:28.921Z,5.64
2022-12-01T16:39:55.730Z,5.60
2022-12-01T16:42:25.084Z,5.55
2022-12-01T16:44:52.683Z,5.64
2022-12-01T16:47:57.528Z,5.61
2022-12-01T16:50:28.789Z,5.55
2022-12-01T16:52:57.615Z,5.60
2022-12-01T16:55:30.657Z,5.96
2022-12-01T16:57:57.288Z,6.13
2022-12-01T17:00:24.073Z,6.13
2022-12-01T17:02:55.476Z,6.10
2022-12-01T17:05:26.987Z,6.10
2022-12-01T17:07:53.740Z,6.09
2022-12-01T17:10:21.736Z,6.09
2022-12-01T17:12:48.222Z,6.09
2022-12-01T17:15:17.118Z,6.07
2022-12-01T17:17:44.241Z,6.23
2022-12-01T17:20:13.951Z,6.15
2022-12-01T17:22:42.800Z,6.10
2022-12-01T17:25:11.848Z,6.07
2022-12-01T17:27:38.921Z,5.94
2022-12-01T17:30:07.077Z,5.98
2022-12-01T17:32:36.005Z,5.92
2022-12-01T17:35:02.947Z,5.75
2022-12-01T17:37:29.535Z,5.82
2022-12-01T17:39:56.122Z,5.74
2022-12-01T17:42:23.104Z,5.67
2022-12-01T17:44:52.275Z,5.57
2022-12-01T17:47:18.977Z,5.38
2022-12-01T17:49:45.483Z,5.36
2022-12-01T17:52:14.315Z,5.36
2022-12-01T17:54:41.258Z,5.29
2022-12-01T17:57:10.303Z,5.26
2022-12-01T17:59:40.142Z,5.21
2022-12-01T18:02:07.650Z,4.89
2022-12-01T18:04:34.299Z,4.87
2022-12-01T18:07:01.101Z,4.87
2022-12-01T18:09:31.169Z,4.88
2022-12-01T18:12:00.200Z,4.86
2022-12-01T18:14:32.759Z,4.60
2022-12-01T18:17:01.942Z,4.72
2022-12-01T18:19:31.109Z,4.79
2022-12-01T18:22:00.200Z,4.84
2022-12-01T18:24:26.760Z,4.70
2022-12-01T18:26:56.548Z,4.59
2022-12-01T18:29:28.947Z,4.66
2022-12-01T18:31:59.268Z,4.70
2022-12-01T18:34:29.400Z,4.75
2022-12-01T18:36:58.268Z,4.72
2022-12-01T18:39:27.120Z,4.71
2022-12-01T18:41:56.278Z,4.74
2022-12-01T18:44:25.067Z,4.67
2022-12-01T18:46:53.942Z,4.44
2022-12-01T18:49:20.646Z,4.57
2022-12-01T18:51:49.404Z,4.58
2022-12-01T18:54:16.168Z,4.56
2022-12-01T18:56:43.153Z,4.61
2022-12-01T18:59:17.300Z,4.63
2022-12-01T19:01:45.868Z,4.55
2022-12-01T19:04:14.090Z,4.49
2022-12-01T19:06:41.614Z,4.29
2022-12-01T19:09:10.327Z,4.34
2022-12-01T19:11:40.927Z,4.43
2022-12-01T19:14:12.116Z,4.46
2022-12-01T19:16:41.202Z,4.50
2022-12-01T19:19:07.845Z,4.36
2022-12-01T19:21:34.388Z,4.38
2022-12-01T19:24:03.478Z,4.18
2022-12-01T19:26:32.416Z,4.05
2022-12-01T19:28:59.463Z,4.15
2022-12-01T19:31:26.362Z,4.13
2022-12-01T19:33:55.978Z,4.28
2022-12-01T19:36:27.681Z,4.37
2022-12-01T19:38:57.596Z,4.14
2022-12-01T19:41:25.384Z,4.11
2022-12-01T19:43:55.473Z,4.16
2022-12-01T19:46:24.182Z,4.25
2022-12-01T19:48:58.773Z,4.34
2022-12-01T19:51:31.107Z,4.35
2022-12-01T19:53:58.414Z,4.36
2022-12-01T19:56:25.038Z,4.41
2022-12-01T19:58:51.883Z,4.48
2022-12-01T20:01:19.663Z,4.51
2022-12-01T20:03:49.222Z,4.55
2022-12-01T20:06:20.235Z,4.50
2022-12-01T20:08:47.740Z,4.14
2022-12-01T20:11:17.602Z,4.16
2022-12-01T20:13:47.875Z,3.89
2022-12-01T20:16:17.180Z,4.02
2022-12-01T20:18:44.653Z,4.14
2022-12-01T20:21:24.791Z,4.19
2022-12-01T20:23:58.161Z,4.31
2022-12-01T20:26:30.703Z,4.36
2022-12-01T20:29:07.231Z,4.35
2022-12-01T20:31:34.575Z,4.30
2022-12-01T20:34:08.277Z,4.33
2022-12-01T20:36:35.252Z,4.32
2022-12-01T20:39:02.381Z,4.13
2022-12-01T20:41:28.893Z,4.07
2022-12-01T20:44:01.250Z,4.15
2022-12-01T20:46:32.146Z,4.16
2022-12-01T20:48:58.704Z,4.08
2022-12-01T20:51:25.308Z,4.04
2022-12-01T20:54:19.571Z,3.95
2022-12-01T20:56:38.387Z,3.79
2022-12-01T20:59:04.958Z,3.82
2022-12-01T21:01:36.351Z,3.83
2022-12-01T21:04:02.994Z,3.82
2022-12-01T21:06:32.334Z,3.70
2022-12-01T21:08:58.768Z,3.52
2022-12-01T21:11:53.602Z,3.51
2022-12-01T21:14:32.700Z,3.48
2022-12-01T21:17:05.379Z,3.40
2022-12-01T21:20:01.332Z,3.08
2022-12-01T21:22:30.418Z,3.07
2022-12-01T21:25:16.843Z,3.10
2022-12-01T21:27:45.616Z,2.94
2022-12-01T21:30:26.384Z,2.91
2022-12-01T21:32:53.855Z,3.03
2022-12-01T21:35:25.187Z,3.02
2022-12-01T21:38:00.496Z,2.85
2022-12-01T21:40:28.466Z,2.98
2022-12-01T21:43:01.303Z,2.94
2022-12-01T21:45:32.159Z,2.94
2022-12-01T21:48:13.113Z,3.03
2022-12-01T21:50:41.845Z,3.15
2022-12-01T21:53:16.759Z,3.20
2022-12-01T21:55:46.182Z,3.08
2022-12-01T21:58:18.590Z,3.08
2022-12-01T22:00:45.776Z,3.17
2022-12-01T22:03:28.152Z,3.11
2022-12-01T22:06:32.444Z,2.94
2022-12-01T22:09:14.382Z,2.99
2022-12-01T22:11:42.914Z,3.07
2022-12-01T22:14:09.425Z,3.10
2022-12-01T22:16:42.080Z,3.15
2022-12-01T22:19:23.503Z,3.03
2022-12-01T22:22:09.680Z,2.98
2022-12-01T22:24:43.546Z,2.86
2022-12-01T22:27:25.177Z,2.97
2022-12-01T22:29:56.117Z,2.83
2022-12-01T22:32:31.213Z,2.73
2022-12-01T22:35:13.550Z,2.85
2022-12-01T22:38:03.157Z,3.00
2022-12-01T22:40:47.972Z,3.07
2022-12-01T22:43:17.686Z,3.04
2022-12-01T22:45:49.776Z,3.12
2022-12-01T22:48:31.760Z,3.12
2022-12-01T22:51:13.448Z,3.04
2022-12-01T22:53:40.753Z,3.06
2022-12-01T22:56:39.708Z,3.16
2022-12-01T22:59:20.926Z,3.18
2022-12-01T23:01:53.523Z,3.28
2022-12-01T23:04:27.586Z,3.21
2022-12-01T23:07:00.035Z,3.40
2022-12-01T23:09:39.654Z,3.45
2022-12-01T23:12:14.509Z,3.42
2022-12-01T23:14:50.133Z,3.23
2022-12-01T23:17:19.370Z,3.15
2022-12-01T23:19:52.973Z,3.23
2022-12-01T23:22:20.364Z,3.25
2022-12-01T23:24:46.985Z,3.12
2022-12-01T23:27:16.945Z,3.20
2022-12-01T23:29:43.730Z,3.19
2022-12-01T23:32:13.417Z,3.18
2022-12-01T23:34:42.491Z,3.23
2022-12-01T23:37:24.221Z,3.12
2022-12-01T23:39:50.961Z,3.09
2022-12-01T23:42:19.771Z,3.23
2022-12-01T23:44:46.496Z,3.33
2022-12-01T23:47:30.152Z,3.23
2022-12-01T23:50:02.906Z,3.26
2022-12-01T23:52:35.249Z,3.29
2022-12-01T23:55:07.782Z,3.24
2022-12-01T23:57:37.171Z,3.19
